^^
Station Historical Data
Daily Summary for February 3, 2017 Units:  English    Metric   Both
« Previous Day
Next Day »
Daily Weekly Monthly Yearly Custom
  High: Low: Average:
Temperature: 31.1 °F 22.1 °F 26.8 °F
Dew Point: 14.9 °F 8.8 °F 12 °F
Humidity: 62% 47% 54%
Wind Speed: 5.0mph 0.0mph 1.5mph
Wind Gust: 20.0mph - -
Wind- - SW
Pressure: 30.27 in 30.11 in -
Precipitation: 0.00 in    
Historical Graphs
 
 
Tabular Data for February 3, 2017
Time Temperature Dew Point Pressure Wind Wind Speed Wind Gust Humidity Rainfall Rate (Hourly) Conditions
00:00 28.6 °F 14.9 °F 30.21 in NW 1.0 mph 5.0 mph 56% 0.00 in CLR
00:10 28.4 °F 14.3 °F 30.21 in Calm   3.0 mph 55% 0.00 in CLR
00:20 28.3 °F 13.8 °F 30.21 in North 3.0 mph 6.0 mph 54% 0.00 in CLR
00:30 28.3 °F 13.3 °F 30.21 in Calm   6.0 mph 53% 0.00 in CLR
00:40 28.1 °F 13.2 °F 30.21 in Calm   6.0 mph 53% 0.00 in CLR
00:50 27.9 °F 12.6 °F 30.21 in NNW 1.0 mph 4.0 mph 52% 0.00 in CLR
01:00 27.7 °F 12.8 °F 30.21 in WNW 2.0 mph 7.0 mph 53% 0.00 in CLR
01:10 27.5 °F 12.6 °F 30.21 in Calm   3.0 mph 53% 0.00 in CLR
01:20 27.4 °F 12.9 °F 30.22 in Calm   3.0 mph 54% 0.00 in CLR
01:30 27.2 °F 12.7 °F 30.22 in WNW 1.0 mph 6.0 mph 54% 0.00 in CLR
01:40 27.0 °F 12.6 °F 30.22 in WNW 1.0 mph 6.0 mph 54% 0.00 in CLR
01:50 26.9 °F 12.5 °F 30.22 in NNE 2.0 mph 7.0 mph 54% 0.00 in CLR
02:00 26.7 °F 12.7 °F 30.23 in North 3.0 mph 5.0 mph 55% 0.00 in CLR
02:10 26.6 °F 12.6 °F 30.23 in NNE 2.0 mph 7.0 mph 55% 0.00 in CLR
02:20 26.4 °F 12.4 °F 30.23 in NNE 2.0 mph 10.0 mph 55% 0.00 in CLR
02:30 26.1 °F 11.7 °F 30.23 in North 1.0 mph 7.0 mph 54% 0.00 in CLR
02:40 25.9 °F 11.9 °F 30.23 in NNW 2.0 mph 10.0 mph 55% 0.00 in CLR
02:50 25.7 °F 11.7 °F 30.23 in NNE 1.0 mph 8.0 mph 55% 0.00 in CLR
03:00 25.5 °F 11.1 °F 30.23 in NNE 1.0 mph 9.0 mph 54% 0.00 in CLR
03:10 25.3 °F 11.4 °F 30.23 in ENE 1.0 mph 7.0 mph 55% 0.00 in CLR
03:20 25.1 °F 11.6 °F 30.23 in North 2.0 mph 5.0 mph 56% 0.00 in CLR
03:30 24.9 °F 11.4 °F 30.23 in Calm   7.0 mph 56% 0.00 in CLR
03:40 24.7 °F 11.2 °F 30.22 in NE 2.0 mph 8.0 mph 56% 0.00 in CLR
03:50 24.6 °F 11.1 °F 30.22 in NNE 3.0 mph 8.0 mph 56% 0.00 in CLR
04:00 24.5 °F 11.4 °F 30.22 in NNE 2.0 mph 8.0 mph 57% 0.00 in CLR
04:10 24.4 °F 10.9 °F 30.22 in NNW 3.0 mph 12.0 mph 56% 0.00 in CLR
04:20 24.3 °F 10.8 °F 30.22 in NW 2.0 mph 10.0 mph 56% 0.00 in CLR
04:30 24.2 °F 11.5 °F 30.22 in North 1.0 mph 5.0 mph 58% 0.00 in CLR
04:40 24.1 °F 11.4 °F 30.22 in North 1.0 mph 6.0 mph 58% 0.00 in CLR
04:50 23.9 °F 11.3 °F 30.22 in North 1.0 mph 5.0 mph 58% 0.00 in CLR
05:00 23.9 °F 11.6 °F 30.22 in Calm   13.0 mph 59% 0.00 in CLR
05:10 23.9 °F 11.3 °F 30.23 in North 1.0 mph 10.0 mph 58% 0.00 in CLR
05:20 23.7 °F 11.1 °F 30.22 in NNE 2.0 mph 6.0 mph 58% 0.00 in CLR
05:30 23.6 °F 11.0 °F 30.22 in North 2.0 mph 6.0 mph 58% 0.00 in CLR
05:40 23.6 °F 10.9 °F 30.23 in Calm   7.0 mph 58% 0.00 in CLR
05:50 23.5 °F 11.6 °F 30.23 in Calm   3.0 mph 60% 0.00 in CLR
06:00 23.3 °F 11.5 °F 30.23 in Calm   4.0 mph 60% 0.00 in CLR
06:10 23.2 °F 11.4 °F 30.24 in Calm   4.0 mph 60% 0.00 in CLR
06:20 22.9 °F 11.1 °F 30.24 in Calm   4.0 mph 60% 0.00 in CLR
06:30 22.7 °F 10.9 °F 30.24 in Calm   4.0 mph 60% 0.00 in CLR
06:40 22.8 °F 11.0 °F 30.24 in Calm   3.0 mph 60% 0.00 in CLR
06:50 22.8 °F 11.0 °F 30.25 in Calm   3.0 mph 60% 0.00 in CLR
07:00 22.7 °F 10.9 °F 30.24 in Calm   1.0 mph 60% 0.00 in CLR
07:10 22.3 °F 10.5 °F 30.25 in Calm     60% 0.00 in CLR
07:20 22.1 °F 11.1 °F 30.25 in Calm   2.0 mph 62% 0.00 in CLR
07:30 22.4 °F 11.0 °F 30.25 in Calm   1.0 mph 61% 0.00 in CLR
07:40 22.6 °F 11.2 °F 30.25 in Calm   1.0 mph 61% 0.00 in CLR
07:50 23.0 °F 11.5 °F 30.25 in SSW 1.0 mph 3.0 mph 61% 0.00 in CLR
08:00 23.3 °F 11.9 °F 30.25 in Calm   4.0 mph 61% 0.00 in CLR
08:10 23.6 °F 11.3 °F 30.25 in Calm   3.0 mph 59% 0.00 in CLR
08:20 23.8 °F 11.5 °F 30.25 in Calm   3.0 mph 59% 0.00 in CLR
08:40 24.0 °F 11.3 °F 30.26 in WSW 1.0 mph 6.0 mph 58% 0.00 in CLR
08:50 24.2 °F 11.1 °F 30.26 in SW 2.0 mph 6.0 mph 57% 0.00 in CLR
09:00 24.5 °F 11.8 °F 30.26 in SW 1.0 mph 5.0 mph 58% 0.00 in CLR
09:10 24.7 °F 12.4 °F 30.26 in WSW 3.0 mph 6.0 mph 59% 0.00 in CLR
09:20 24.7 °F 12.4 °F 30.27 in Calm   5.0 mph 59% 0.00 in CLR
09:30 24.8 °F 12.5 °F 30.27 in Calm   6.0 mph 59% 0.00 in CLR
09:50 25.6 °F 12.1 °F 30.26 in WSW 2.0 mph 6.0 mph 56% 0.00 in CLR
10:00 25.6 °F 12.0 °F 30.25 in West 1.0 mph 5.0 mph 56% 0.00 in CLR
10:10 25.6 °F 12.0 °F 30.25 in WSW 1.0 mph 7.0 mph 56% 0.00 in CLR
10:20 25.7 °F 11.8 °F 30.25 in SW 1.0 mph 7.0 mph 55% 0.00 in CLR
10:30 25.9 °F 12.4 °F 30.25 in Calm   8.0 mph 56% 0.00 in CLR
10:40 26.1 °F 12.5 °F 30.24 in NW 1.0 mph 6.0 mph 56% 0.00 in CLR
10:50 26.3 °F 11.8 °F 30.24 in SW 2.0 mph 8.0 mph 54% 0.00 in CLR
11:00 26.5 °F 12.1 °F 30.24 in SW 2.0 mph 10.0 mph 54% 0.00 in CLR
11:10 26.8 °F 12.8 °F 30.22 in Calm   7.0 mph 55% 0.00 in CLR
11:20 27.5 °F 12.6 °F 30.22 in WNW 1.0 mph 5.0 mph 53% 0.00 in CLR
11:30 27.5 °F 12.6 °F 30.21 in West 1.0 mph 6.0 mph 53% 0.00 in CLR
11:40 27.3 °F 12.4 °F 30.21 in WSW 2.0 mph 6.0 mph 53% 0.00 in CLR
11:50 27.2 °F 12.3 °F 30.20 in SW 2.0 mph 8.0 mph 53% 0.00 in CLR
12:00 27.8 °F 12.9 °F 30.19 in WSW 2.0 mph 5.0 mph 53% 0.00 in CLR
12:10 28.3 °F 12.9 °F 30.18 in WSW 3.0 mph 7.0 mph 52% 0.00 in CLR
12:20 28.6 °F 13.1 °F 30.18 in WSW 2.0 mph 7.0 mph 52% 0.00 in CLR
12:30 29.0 °F 12.6 °F 30.17 in West 3.0 mph 8.0 mph 50% 0.00 in CLR
12:40 28.5 °F 12.6 °F 30.17 in West 5.0 mph 10.0 mph 51% 0.00 in CLR
12:50 28.9 °F 13.0 °F 30.16 in West 5.0 mph 8.0 mph 51% 0.00 in CLR
13:00 28.7 °F 13.3 °F 30.15 in West 2.0 mph 9.0 mph 52% 0.00 in CLR
13:10 29.4 °F 13.0 °F 30.15 in WSW 3.0 mph 8.0 mph 50% 0.00 in FEW
13:20 29.6 °F 13.7 °F 30.14 in West 1.0 mph 8.0 mph 51% 0.00 in FEW
13:30 29.5 °F 13.1 °F 30.14 in WSW 5.0 mph 10.0 mph 50% 0.00 in FEW
13:40 30.3 °F 13.4 °F 30.13 in SW 1.0 mph 10.0 mph 49% 0.00 in FEW
13:50 30.5 °F 13.6 °F 30.13 in SW 1.0 mph 10.0 mph 49% 0.00 in FEW
14:10 31.1 °F 14.1 °F 30.12 in WSW 2.0 mph 8.0 mph 49% 0.00 in FEW
14:20 30.7 °F 12.9 °F 30.11 in West 2.0 mph 7.0 mph 47% 0.00 in FEW
14:30 30.2 °F 12.8 °F 30.11 in WSW 2.0 mph 8.0 mph 48% 0.00 in FEW
14:50 30.9 °F 13.0 °F 30.11 in West 1.0 mph 8.0 mph 47% 0.00 in FEW
15:00 30.9 °F 13.0 °F 30.11 in WNW 3.0 mph 7.0 mph 47% 0.00 in FEW
15:10 30.8 °F 12.9 °F 30.11 in SW 2.0 mph 7.0 mph 47% 0.00 in CLR
15:20 30.5 °F 12.7 °F 30.11 in WSW 3.0 mph 9.0 mph 47% 0.00 in CLR
15:30 30.6 °F 13.2 °F 30.11 in West 2.0 mph 6.0 mph 48% 0.00 in CLR
15:40 30.8 °F 12.9 °F 30.11 in Calm   6.0 mph 47% 0.00 in CLR
15:50 30.6 °F 13.2 °F 30.11 in WSW 2.0 mph 8.0 mph 48% 0.00 in CLR
16:00 30.7 °F 13.3 °F 30.11 in Calm   7.0 mph 48% 0.00 in CLR
16:10 30.6 °F 13.2 °F 30.11 in SW 2.0 mph 7.0 mph 48% 0.00 in SCT
16:20 30.2 °F 12.4 °F 30.11 in WSW 2.0 mph 10.0 mph 47% 0.00 in SCT
16:30 30.2 °F 13.3 °F 30.11 in Calm   9.0 mph 49% 0.00 in SCT
16:40 30.2 °F 13.3 °F 30.11 in NW 1.0 mph 6.0 mph 49% 0.00 in SCT
16:50 30.1 °F 13.2 °F 30.11 in SW 1.0 mph 4.0 mph 49% 0.00 in SCT
17:00 30.0 °F 13.1 °F 30.11 in ENE 1.0 mph 4.0 mph 49% 0.00 in SCT
17:10 29.8 °F 12.5 °F 30.11 in NNW 2.0 mph 6.0 mph 48% 0.00 in SCT
17:20 29.7 °F 12.8 °F 30.11 in Calm   3.0 mph 49% 0.00 in SCT
17:30 29.5 °F 12.7 °F 30.12 in Calm   7.0 mph 49% 0.00 in SCT
17:40 29.3 °F 12.9 °F 30.12 in Calm   8.0 mph 50% 0.00 in SCT
17:50 29.1 °F 12.8 °F 30.13 in WSW 2.0 mph 6.0 mph 50% 0.00 in SCT
18:00 29.0 °F 12.7 °F 30.13 in SW 1.0 mph 10.0 mph 50% 0.00 in SCT
18:10 28.9 °F 13.0 °F 30.14 in WSW 1.0 mph 9.0 mph 51% 0.00 in BKN
18:20 28.8 °F 12.9 °F 30.14 in WSW 1.0 mph 10.0 mph 51% 0.00 in BKN
18:30 28.8 °F 12.9 °F 30.14 in WNW 2.0 mph 10.0 mph 51% 0.00 in BKN
18:40 28.7 °F 12.8 °F 30.14 in West 1.0 mph 5.0 mph 51% 0.00 in BKN
18:50 28.6 °F 13.2 °F 30.14 in NNW 2.0 mph 10.0 mph 52% 0.00 in BKN
19:00 28.5 °F 13.1 °F 30.15 in Calm   11.0 mph 52% 0.00 in BKN
19:10 28.4 °F 13.0 °F 30.15 in SW 1.0 mph 9.0 mph 52% 0.00 in OVC
19:20 28.3 °F 13.3 °F 30.15 in South 2.0 mph 12.0 mph 53% 0.00 in OVC
19:30 28.3 °F 12.9 °F 30.16 in SW 5.0 mph 13.0 mph 52% 0.00 in OVC
19:40 28.2 °F 13.2 °F 30.16 in South 1.0 mph 5.0 mph 53% 0.00 in OVC
19:50 28.2 °F 13.2 °F 30.17 in SSW 1.0 mph 9.0 mph 53% 0.00 in OVC
20:00 28.1 °F 13.1 °F 30.17 in WSW 1.0 mph 12.0 mph 53% 0.00 in OVC
20:10 28.0 °F 13.1 °F 30.17 in WSW 1.0 mph 8.0 mph 53% 0.00 in OVC
20:20 28.0 °F 13.5 °F 30.17 in SW 2.0 mph 6.0 mph 54% 0.00 in OVC
20:30 27.9 °F 13.0 °F 30.18 in SW 2.0 mph 9.0 mph 53% 0.00 in OVC
20:40 27.7 °F 12.8 °F 30.18 in SSE 1.0 mph 12.0 mph 53% 0.00 in OVC
20:50 27.4 °F 11.2 °F 30.18 in NNW 3.0 mph 12.0 mph 50% 0.00 in OVC
21:00 27.1 °F 10.5 °F 30.18 in North 3.0 mph 14.0 mph 49% 0.00 in OVC
21:10 27.0 °F 10.4 °F 30.19 in North 5.0 mph 15.0 mph 49% 0.00 in FEW
21:20 26.7 °F 9.6 °F 30.19 in SW 2.0 mph 15.0 mph 48% 0.00 in FEW
21:30 26.5 °F 9.0 °F 30.19 in WNW 3.0 mph 11.0 mph 47% 0.00 in FEW
21:40 26.3 °F 8.8 °F 30.19 in West 3.0 mph 14.0 mph 47% 0.00 in FEW
21:50 26.1 °F 9.5 °F 30.19 in NE 2.0 mph 8.0 mph 49% 0.00 in FEW
22:00 25.9 °F 9.3 °F 30.20 in NNE 2.0 mph 9.0 mph 49% 0.00 in FEW
22:10 25.8 °F 9.7 °F 30.20 in NE 1.0 mph 10.0 mph 50% 0.00 in BKN
22:20 25.6 °F 9.5 °F 30.21 in SW 2.0 mph 14.0 mph 50% 0.00 in BKN
22:30 25.5 °F 9.9 °F 30.21 in WNW 3.0 mph 14.0 mph 51% 0.00 in BKN
22:40 25.3 °F 9.7 °F 30.22 in South 1.0 mph 14.0 mph 51% 0.00 in BKN
22:50 25.1 °F 10.8 °F 30.22 in North 3.0 mph 9.0 mph 54% 0.00 in BKN
23:00 24.9 °F 11.0 °F 30.22 in NW 3.0 mph 8.0 mph 55% 0.00 in BKN
23:10 24.8 °F 10.9 °F 30.23 in Calm   12.0 mph 55% 0.00 in BKN
23:20 24.5 °F 10.3 °F 30.23 in NE 5.0 mph 10.0 mph 54% 0.00 in BKN
23:30 24.0 °F 9.7 °F 30.24 in West 5.0 mph 20.0 mph 54% 0.00 in BKN
23:40 23.7 °F 9.9 °F 30.24 in South 5.0 mph 12.0 mph 55% 0.00 in BKN
23:50 23.4 °F 9.2 °F 30.25 in East 3.0 mph 9.0 mph 54% 0.00 in BKN
TarryTown NY Weather
Compliments of Weather Underground - 1.75 mb